Time;durP1;ratioP1;P1;durP2;ratioP2;P2;SDS_P1;SDS_P2;PMS_P1;PMS_P2;Temp;Humidity;BMP_temperature;BMP_pressure;BME280_temperature;BME280_humidity;BME280_pressure;Samples;Min_cycle;Max_cycle;Signal;HPM_P1;HPM_P2
2023/01/25 00:01:48;;;;;;;31.00;16.20;;;2.70;99.90;;;6.35;56.23;99196.94;5030058;28;20370;-40
2023/01/25 00:04:16;;;;;;;24.10;13.80;;;2.70;99.90;;;6.26;55.89;99195.75;5031358;28;20049;-41
2023/01/25 00:06:44;;;;;;;24.80;13.47;;;2.70;99.90;;;6.24;55.73;99189.72;5030257;28;20041;-40
2023/01/25 00:09:12;;;;;;;27.90;14.13;;;2.70;99.90;;;6.28;56.34;99193.84;5031007;28;20057;-40
2023/01/25 00:11:41;;;;;;;39.23;19.00;;;2.70;99.90;;;6.31;56.20;99192.81;5031116;28;20037;-41
2023/01/25 00:14:14;;;;;;;43.17;20.20;;;2.70;99.90;;;6.33;56.28;99195.34;5031309;28;20045;-40
2023/01/25 00:16:42;;;;;;;34.80;16.77;;;2.70;99.90;;;6.32;56.17;99186.59;5023826;28;20501;-41
2023/01/25 00:19:10;;;;;;;39.60;20.03;;;2.70;99.90;;;6.34;55.96;99192.63;5030478;28;20045;-40
2023/01/25 00:21:39;;;;;;;28.33;16.00;;;2.70;99.90;;;6.37;55.49;99183.63;5021945;28;20421;-40
2023/01/25 00:24:09;;;;;;;26.10;14.17;;;2.70;99.90;;;6.36;55.79;99185.44;5031238;28;20046;-41
2023/01/25 00:26:38;;;;;;;25.77;14.13;;;2.80;99.90;;;6.33;55.47;99176.84;5022990;28;20413;-40
2023/01/25 00:29:13;;;;;;;21.27;12.13;;;2.80;99.90;;;6.33;55.60;99179.50;5030926;28;20041;-40
2023/01/25 00:32:01;;;;;;;26.03;12.43;;;2.80;99.90;;;6.23;55.91;99174.78;5022590;28;20041;-41
2023/01/25 00:34:45;;;;;;;25.10;13.27;;;2.80;99.90;;;6.24;55.56;99170.31;5030659;28;20056;-41
2023/01/25 00:37:29;;;;;;;22.43;13.60;;;2.70;99.90;;;6.19;55.45;99172.44;5031059;28;20045;-40
2023/01/25 00:39:57;;;;;;;22.35;12.25;;;2.60;99.90;;;6.18;55.96;99168.91;5029270;28;20539;-41
2023/01/25 00:42:25;;;;;;;25.80;13.00;;;2.60;99.90;;;6.19;55.73;99172.44;5037740;28;20045;-40
2023/01/25 00:44:52;;;;;;;25.60;12.10;;;2.60;99.90;;;6.22;56.18;99172.22;5030893;28;20072;-42
2023/01/25 00:47:20;;;;;;;24.10;12.50;;;2.60;99.90;;;6.25;55.93;99172.03;5030606;28;20508;-41
2023/01/25 00:49:49;;;;;;;26.20;13.43;;;2.70;99.90;;;6.23;55.71;99164.19;5028594;28;20060;-40
2023/01/25 00:52:17;;;;;;;23.40;13.57;;;2.60;99.90;;;6.16;55.36;99164.66;5037094;28;20056;-40
2023/01/25 00:54:45;;;;;;;26.40;13.73;;;2.50;99.90;;;6.16;55.85;99176.09;5046168;28;20041;-41
2023/01/25 00:57:13;;;;;;;25.67;13.47;;;2.50;99.90;;;6.20;55.88;99169.66;5030534;28;20057;-41
2023/01/25 00:59:43;;;;;;;24.73;13.77;;;2.60;99.90;;;6.24;55.64;99165.91;5030408;28;20052;-40
2023/01/25 01:02:12;;;;;;;22.90;12.87;;;2.60;99.90;;;6.27;55.65;99164.84;5029447;28;20120;-41
2023/01/25 01:04:40;;;;;;;22.27;12.37;;;2.70;99.90;;;6.24;55.92;99159.75;5030670;28;20046;-40
2023/01/25 01:07:13;;;;;;;26.60;15.27;;;2.70;99.90;;;6.27;56.33;99156.91;5030681;28;20046;-40
2023/01/25 01:09:41;;;;;;;29.67;15.17;;;2.70;99.90;;;6.27;55.98;99154.28;5021155;28;20033;-41
2023/01/25 01:12:09;;;;;;;27.07;13.43;;;2.70;99.90;;;6.29;55.97;99149.72;5030527;28;20060;-40
2023/01/25 01:14:37;;;;;;;26.33;13.43;;;2.80;99.90;;;6.31;55.43;99161.06;5030541;28;20048;-40
2023/01/25 01:17:05;;;;;;;27.20;13.87;;;2.80;99.90;;;6.33;56.15;99151.22;5030502;28;20053;-40
2023/01/25 01:19:33;;;;;;;29.90;14.50;;;2.80;99.90;;;6.36;56.42;99163.41;5036665;28;20050;-42
2023/01/25 01:22:01;;;;;;;25.00;12.97;;;2.80;99.90;;;6.36;55.80;99155.47;5029809;28;20045;-41
2023/01/25 01:24:29;;;;;;;30.97;16.40;;;2.80;99.90;;;6.33;56.23;99153.88;5029191;28;20060;-42
2023/01/25 01:26:57;;;;;;;25.77;14.57;;;2.80;99.90;;;6.34;56.07;99157.38;5030441;28;20042;-41
2023/01/25 01:29:25;;;;;;;26.83;14.33;;;2.80;99.90;;;6.36;55.90;99153.69;5031957;28;20513;-41
2023/01/25 01:31:53;;;;;;;28.00;15.37;;;2.80;99.90;;;6.39;55.99;99152.63;5049324;28;20053;-40
2023/01/25 01:34:24;;;;;;;25.93;14.30;;;2.80;99.90;;;6.42;55.88;99149.81;5033190;28;20050;-40
2023/01/25 01:36:52;;;;;;;31.23;14.23;;;2.80;99.90;;;6.42;56.47;99149.81;5033466;28;20060;-40
2023/01/25 01:39:21;;;;;;;25.73;14.00;;;2.80;99.90;;;6.41;56.02;99161.31;5040942;28;20056;-41
2023/01/25 01:41:49;;;;;;;27.27;13.87;;;2.90;99.90;;;6.38;56.18;99154.44;5033929;28;20045;-40
2023/01/25 01:44:39;;;;;;;23.87;14.03;;;2.80;99.90;;;6.39;55.80;99156.13;5034329;28;20068;-41
2023/01/25 01:47:18;;;;;;;29.53;17.17;;;2.90;99.90;;;6.41;56.12;99156.03;5016246;28;20505;-42
2023/01/25 01:50:00;;;;;;;38.60;20.30;;;2.80;99.90;;;6.42;56.15;99152.47;5014205;28;20057;-41
2023/01/25 01:52:34;;;;;;;37.47;17.53;;;2.80;99.90;;;6.42;56.23;99155.94;5032503;28;20057;-40
2023/01/25 01:55:12;;;;;;;30.60;14.73;;;2.80;99.90;;;6.43;55.73;99151.50;5016653;28;20061;-41
2023/01/25 01:57:54;;;;;;;31.23;15.33;;;2.80;99.90;;;6.42;55.63;99155.94;5025472;28;20045;-41
2023/01/25 02:00:29;;;;;;;27.57;14.10;;;2.80;99.90;;;6.44;55.86;99155.84;5032661;28;20057;-40
2023/01/25 02:03:01;;;;;;;27.63;14.50;;;2.80;99.90;;;6.45;55.90;99160.19;5032459;28;20120;-41
2023/01/25 02:06:09;;;;;;;23.63;13.23;;;2.80;99.90;;;6.41;55.76;99156.03;5040851;28;20041;-40
2023/01/25 02:08:39;;;;;;;26.27;13.50;;;2.80;99.90;;;6.44;55.53;99154.03;5033574;28;20056;-41
2023/01/25 02:11:09;;;;;;;25.43;12.57;;;2.80;99.90;;;6.46;55.68;99151.31;5032105;28;20456;-41
2023/01/25 02:13:37;;;;;;;24.37;13.37;;;2.80;99.90;;;6.45;56.38;99146.94;5032677;28;20652;-40
2023/01/25 02:16:15;;;;;;;28.10;14.83;;;2.90;99.90;;;6.45;56.08;99145.16;5032500;28;20058;-40
2023/01/25 02:18:43;;;;;;;27.20;15.00;;;2.90;99.90;;;6.46;55.53;99146.84;5031974;28;20053;-43
2023/01/25 02:21:12;;;;;;;28.93;15.77;;;2.90;99.90;;;6.47;55.21;99142.41;5031886;28;20041;-40
2023/01/25 02:23:58;;;;;;;27.17;14.37;;;2.80;99.90;;;6.44;55.36;99142.63;5032305;28;20049;-40
2023/01/25 02:26:26;;;;;;;27.93;13.73;;;2.80;99.90;;;6.42;55.56;99134.78;5032131;28;20228;-40
2023/01/25 02:29:07;;;;;;;25.03;13.17;;;2.80;99.90;;;6.42;55.39;99139.22;5032314;28;20346;-40
2023/01/25 02:31:35;;;;;;;27.37;14.37;;;2.80;99.90;;;6.44;55.85;99135.53;5039833;28;20456;-40
2023/01/25 02:34:03;;;;;;;25.93;12.67;;;2.90;99.90;;;6.43;55.50;99136.47;5033192;28;20056;-41
2023/01/25 02:36:33;;;;;;;25.00;12.30;;;2.80;99.90;;;6.43;55.82;99136.47;5033158;28;20460;-40
2023/01/25 02:39:17;;;;;;;25.43;13.13;;;2.90;99.90;;;6.42;55.61;99131.28;5031970;28;20389;-40
2023/01/25 02:41:48;;;;;;;22.17;12.53;;;2.80;99.90;;;6.44;55.82;99134.69;5038923;28;20056;-40
2023/01/25 02:44:28;;;;;;;23.23;14.17;;;2.80;99.90;;;6.43;55.49;99130.31;5031852;28;20413;-40
2023/01/25 02:46:56;;;;;;;23.43;11.60;;;2.90;99.90;;;6.44;55.38;99129.41;5025714;28;20508;-41
2023/01/25 02:49:24;;;;;;;22.90;12.33;;;2.80;99.90;;;6.45;56.04;99126.63;5031551;28;20053;-42
2023/01/25 02:51:57;;;;;;;25.97;13.17;;;2.80;99.90;;;6.45;55.47;99120.50;5032533;28;20061;-41
2023/01/25 02:54:26;;;;;;;24.00;12.97;;;2.90;99.90;;;6.42;55.54;99126.84;5031248;28;20053;-41
2023/01/25 02:56:56;;;;;;;29.00;13.87;;;2.80;99.90;;;6.42;56.16;99118.91;5030952;28;20038;-41
2023/01/25 02:59:26;;;;;;;27.10;13.93;;;2.80;99.90;;;6.42;55.79;99115.41;5032403;28;20645;-40
2023/01/25 03:01:58;;;;;;;25.40;13.27;;;2.80;99.90;;;6.40;55.33;99109.38;5023842;28;20052;-41
2023/01/25 03:04:27;;;;;;;22.73;12.77;;;2.80;99.90;;;6.43;56.01;99114.44;5031526;28;20052;-40
2023/01/25 03:06:55;;;;;;;25.03;13.70;;;2.80;99.90;;;6.43;56.28;99112.66;5022821;28;20056;-40
2023/01/25 03:09:23;;;;;;;23.67;13.83;;;2.90;99.90;;;6.41;56.08;99101.31;5031524;28;20056;-40
2023/01/25 03:11:51;;;;;;;25.37;13.87;;;2.80;99.90;;;6.40;55.57;99096.16;5031200;28;20057;-40
2023/01/25 03:14:21;;;;;;;30.20;13.97;;;2.80;99.90;;;6.39;55.91;99099.72;5039451;28;20057;-41
2023/01/25 03:16:49;;;;;;;28.60;15.03;;;2.70;99.90;;;6.36;55.89;99099.91;5031175;28;20500;-40
2023/01/25 03:19:20;;;;;;;31.20;14.03;;;2.70;99.90;;;6.34;56.43;99097.41;5031690;28;20060;-43
2023/01/25 03:21:48;;;;;;;25.50;12.90;;;2.70;99.90;;;6.33;55.80;99095.69;5024052;28;20532;-40
2023/01/25 03:24:17;;;;;;;30.13;14.87;;;2.70;99.90;;;6.31;55.96;99089.66;5038927;28;20437;-41
2023/01/25 03:29:40;;;;;;;25.33;13.07;;;2.60;99.90;;;6.31;55.60;99097.59;5038701;28;20045;-41
2023/01/25 03:32:13;;;;;;;;;;;2.70;99.90;;;6.28;56.39;99100.41;5012208;28;20050;-40
2023/01/25 03:34:41;;;;;;;25.20;13.03;;;2.70;99.90;;;6.36;55.89;99099.91;5030913;28;19925;-40
2023/01/25 03:37:10;;;;;;;28.47;13.23;;;2.70;99.90;;;6.30;56.12;99096.75;5030753;28;20053;-40
2023/01/25 03:39:40;;;;;;;29.50;14.97;;;2.70;99.90;;;6.28;55.76;99090.69;5030495;28;20053;-41
2023/01/25 03:42:09;;;;;;;27.10;13.67;;;2.70;99.90;;;6.28;55.94;99096.00;5031768;28;20054;-40
2023/01/25 03:44:37;;;;;;;29.87;15.37;;;2.80;99.90;;;6.27;55.95;99094.28;5031950;28;20042;-40
2023/01/25 03:47:05;;;;;;;27.33;14.43;;;2.70;99.90;;;6.29;56.15;99088.91;5031088;28;20061;-40
2023/01/25 03:49:33;;;;;;;28.23;15.87;;;2.80;99.90;;;6.31;56.13;99090.47;5031969;28;20045;-40
2023/01/25 03:52:02;;;;;;;29.07;16.83;;;2.70;99.90;;;6.33;55.81;99095.69;5030424;28;20061;-41
2023/01/25 03:54:36;;;;;;;29.77;15.77;;;2.80;99.90;;;6.36;56.45;99089.34;5031066;28;20060;-40
2023/01/25 03:57:03;;;;;;;32.00;19.53;;;2.80;99.90;;;6.37;55.68;99096.34;5030802;28;20064;-40
2023/01/25 03:59:39;;;;;;;29.47;15.43;;;2.80;99.90;;;6.37;56.47;99088.41;5030246;28;20052;-40
2023/01/25 04:02:07;;;;;;;25.17;13.43;;;2.80;99.90;;;6.35;56.31;99085.84;5031981;28;20049;-42
2023/01/25 04:04:35;;;;;;;25.03;13.90;;;2.70;99.90;;;6.35;56.16;99091.16;5030123;28;20045;-41
2023/01/25 04:07:03;;;;;;;25.60;13.70;;;2.80;99.90;;;6.34;55.98;99085.94;5038532;28;20053;-40
2023/01/25 04:09:33;;;;;;;22.50;12.67;;;2.70;99.90;;;6.33;55.60;99086.91;5029988;28;20041;-40
2023/01/25 04:12:01;;;;;;;24.03;14.37;;;2.70;99.90;;;6.31;55.81;99092.28;5030125;28;20062;-40
2023/01/25 04:14:31;;;;;;;25.20;12.70;;;2.70;99.90;;;6.30;55.70;99094.09;5029993;28;20064;-40
2023/01/25 04:17:15;;;;;;;25.63;12.77;;;2.70;99.90;;;6.29;56.07;99086.25;5029709;28;20054;-40
2023/01/25 04:19:49;;;;;;;;;;;2.70;99.90;;;6.26;55.97;99081.16;5032120;28;20216;-42
2023/01/25 04:22:19;;;;;;;24.97;12.77;;;2.80;99.90;;;6.31;56.34;99081.72;5030678;28;20392;-41
2023/01/25 04:24:50;;;;;;;23.77;12.17;;;2.80;99.90;;;6.27;56.41;99072.28;5030037;28;20045;-41
2023/01/25 04:27:18;;;;;;;27.47;13.90;;;2.80;99.90;;;6.24;56.20;99077.75;5030013;28;20041;-40
2023/01/25 04:29:57;;;;;;;26.50;14.30;;;2.70;99.90;;;6.26;56.29;99070.56;5022626;28;20053;-43
2023/01/25 04:32:26;;;;;;;28.80;12.27;;;2.70;99.90;;;6.24;55.96;99070.69;5037946;28;20521;-40
2023/01/25 04:34:55;;;;;;;24.33;12.13;;;2.70;99.90;;;6.24;56.07;99067.19;5029785;28;20057;-40
2023/01/25 04:37:26;;;;;;;22.80;11.70;;;2.70;99.90;;;6.23;56.31;99066.34;5029485;28;20386;-40
2023/01/25 04:39:59;;;;;;;22.77;12.70;;;2.70;99.90;;;6.24;56.57;99064.53;5037980;28;20056;-40
2023/01/25 04:42:31;;;;;;;24.87;14.00;;;2.70;99.90;;;6.28;55.95;99068.66;5029345;28;20405;-43
2023/01/25 04:44:59;;;;;;;24.27;12.87;;;2.70;99.90;;;6.29;55.89;99071.22;5030324;28;20041;-41
2023/01/25 04:47:27;;;;;;;31.80;14.23;;;2.70;99.90;;;6.24;56.78;99072.47;5030349;28;20060;-40
2023/01/25 04:49:55;;;;;;;29.70;14.67;;;2.70;99.90;;;6.22;56.51;99069.06;5036464;28;20049;-41
2023/01/25 04:52:27;;;;;;;27.67;13.47;;;2.70;99.90;;;6.20;56.63;99073.63;5028278;28;20050;-40
2023/01/25 04:54:55;;;;;;;30.80;15.43;;;2.70;99.90;;;6.20;56.33;99066.53;5030278;28;20050;-40
2023/01/25 04:57:24;;;;;;;38.20;18.13;;;2.70;99.90;;;6.22;55.77;99071.72;5030040;28;20049;-40
2023/01/25 04:59:52;;;;;;;25.20;13.57;;;2.70;99.90;;;6.22;55.97;99069.94;5029468;28;20540;-40
2023/01/25 05:02:22;;;;;;;27.33;13.87;;;2.70;99.90;;;6.27;55.89;99067.00;5029648;28;20049;-41
2023/01/25 05:04:50;;;;;;;32.67;14.10;;;2.70;99.90;;;6.24;56.56;99067.19;5030283;28;20044;-41
2023/01/25 05:07:20;;;;;;;28.83;14.27;;;2.70;99.90;;;6.25;55.97;99060.94;5029596;28;20041;-41
2023/01/25 05:09:48;;;;;;;35.90;15.50;;;2.70;99.90;;;6.27;56.50;99062.53;5029160;28;20050;-40
2023/01/25 05:12:21;;;;;;;30.20;16.05;;;2.70;99.90;;;6.29;56.22;99065.09;5030091;28;20050;-41
2023/01/25 05:15:00;;;;;;;27.80;15.47;;;2.70;99.90;;;6.26;56.37;99063.50;5022117;28;20045;-41
2023/01/25 05:17:29;;;;;;;28.07;14.00;;;2.70;99.90;;;6.29;55.74;99060.66;5028799;28;20072;-40
2023/01/25 05:19:56;;;;;;;31.87;16.57;;;2.70;99.90;;;6.29;56.15;99058.00;5029613;28;20053;-40
2023/01/25 05:22:24;;;;;;;39.27;18.47;;;2.70;99.90;;;6.29;56.35;99062.44;5037456;28;20045;-40
2023/01/25 05:24:53;;;;;;;43.87;19.70;;;2.70;99.90;;;6.29;56.45;99060.66;5029764;28;20049;-40
2023/01/25 05:27:22;;;;;;;36.40;18.83;;;2.70;99.90;;;6.31;56.32;99060.56;5029640;28;20049;-42
2023/01/25 05:29:53;;;;;;;41.23;21.73;;;2.70;99.90;;;6.29;56.39;99063.28;5029270;28;20512;-42
2023/01/25 05:32:42;;;;;;;40.47;21.60;;;2.70;99.90;;;6.29;56.37;99065.94;5023608;28;20053;-40
2023/01/25 05:35:10;;;;;;;30.60;16.17;;;2.80;99.90;;;6.27;55.98;99065.19;5029076;28;20068;-41
2023/01/25 05:37:39;;;;;;;31.10;16.47;;;2.80;99.90;;;6.29;55.68;99065.09;5037507;28;20054;-40
2023/01/25 05:40:13;;;;;;;34.23;16.53;;;2.70;99.90;;;6.26;56.28;99063.50;5029486;28;20520;-40
2023/01/25 05:42:43;;;;;;;36.77;18.57;;;2.80;99.90;;;6.22;55.95;99062.00;5029446;28;20416;-40
2023/01/25 05:45:16;;;;;;;27.40;14.85;;;2.70;99.90;;;6.24;56.54;99059.25;5029407;28;20088;-41
2023/01/25 05:47:46;;;;;;;41.57;18.43;;;2.80;99.90;;;6.23;55.96;99058.41;5020518;28;20042;-41
2023/01/25 05:50:14;;;;;;;30.17;14.83;;;2.80;99.90;;;6.24;56.51;99054.81;5021032;28;20436;-40
2023/01/25 05:53:04;;;;;;;26.10;13.20;;;2.70;99.90;;;6.22;56.30;99056.72;5037892;28;20053;-40
2023/01/25 05:55:35;;;;;;;23.77;12.40;;;2.80;99.90;;;6.15;56.04;99058.06;5036487;28;20058;-41
2023/01/25 05:58:08;;;;;;;26.60;12.90;;;2.70;99.90;;;6.09;55.97;99051.38;5037727;28;20049;-40
2023/01/25 06:00:38;;;;;;;30.03;15.73;;;2.70;99.90;;;6.06;55.94;99051.53;5029095;28;20050;-41
2023/01/25 06:03:06;;;;;;;37.40;18.60;;;2.70;99.90;;;6.09;56.13;99048.72;5029102;28;20410;-40
2023/01/25 06:05:36;;;;;;;39.70;20.90;;;2.70;99.90;;;6.08;56.46;99044.38;5029204;28;20402;-40
2023/01/25 06:08:04;;;;;;;34.20;18.50;;;2.70;99.90;;;6.10;56.43;99039.81;5030382;28;20113;-41
2023/01/25 06:10:42;;;;;;;40.53;19.80;;;2.70;99.90;;;6.14;56.56;99044.94;5028894;28;20052;-40
2023/01/25 06:13:09;;;;;;;34.23;19.50;;;2.70;99.90;;;6.15;55.98;99036.91;5030431;28;20392;-41
2023/01/25 06:15:37;;;;;;;28.90;16.60;;;2.70;99.90;;;6.20;55.96;99031.31;5029369;28;20049;-41
2023/01/25 06:18:25;;;;;;;30.33;16.70;;;2.70;99.90;;;6.22;55.40;99039.97;5033900;28;20057;-40
2023/01/25 06:21:09;;;;;;;29.70;17.10;;;2.60;99.90;;;6.19;55.71;99030.47;5034448;28;20054;-41
2023/01/25 06:23:37;;;;;;;27.43;16.67;;;2.60;99.90;;;6.19;55.86;99032.25;5033627;28;20053;-41
2023/01/25 06:26:11;;;;;;;30.83;17.27;;;2.70;99.90;;;6.22;56.01;99034.69;5032748;28;20045;-41
2023/01/25 06:28:40;;;;;;;38.67;22.37;;;2.70;99.90;;;6.21;56.02;99035.66;5032493;28;20041;-40
2023/01/25 06:31:15;;;;;;;29.47;16.63;;;2.70;99.90;;;6.21;56.05;99031.22;5033441;28;20048;-40
2023/01/25 06:33:47;;;;;;;24.00;14.83;;;2.60;99.90;;;6.20;55.83;99034.78;5033821;28;20045;-40
2023/01/25 06:36:18;;;;;;;21.27;13.63;;;2.70;99.90;;;6.22;56.50;99032.91;5023848;28;20045;-41
2023/01/25 06:38:51;;;;;;;18.23;12.07;;;2.70;99.90;;;6.21;55.60;99025.09;5033120;28;20052;-41
2023/01/25 06:41:20;;;;;;;27.00;14.57;;;2.70;99.90;;;6.22;55.84;99021.47;5033174;28;20421;-41
2023/01/25 06:43:50;;;;;;;24.03;13.27;;;2.60;99.90;;;6.19;55.71;99025.19;5033125;28;20496;-40
2023/01/25 06:46:19;;;;;;;24.13;14.20;;;2.50;99.90;;;6.14;56.10;99019.31;5032325;28;20038;-42
2023/01/25 06:48:47;;;;;;;25.03;14.23;;;2.50;99.90;;;6.13;56.10;99022.06;5033324;28;20042;-40
2023/01/25 06:51:16;;;;;;;24.90;11.90;;;2.40;99.90;;;6.11;55.76;99025.66;5031999;28;20049;-41
2023/01/25 06:53:46;;;;;;;24.50;14.27;;;2.40;99.90;;;6.12;56.24;99021.22;5033192;28;20049;-41
2023/01/25 06:56:20;;;;;;;17.07;10.83;;;2.40;99.90;;;6.15;56.00;99015.75;5031287;28;20385;-41
2023/01/25 06:58:49;;;;;;;18.73;10.80;;;2.40;99.90;;;6.14;55.37;99018.47;5032901;28;20424;-40
2023/01/25 07:01:25;;;;;;;18.70;11.60;;;2.50;99.90;;;6.16;56.17;99017.44;5031547;28;20049;-41
2023/01/25 07:03:57;;;;;;;30.57;17.50;;;2.60;99.90;;;6.16;55.75;99014.78;5032563;28;20064;-42
2023/01/25 07:06:29;;;;;;;33.37;16.47;;;2.50;99.90;;;6.16;55.79;99013.94;5031512;28;20056;-40
2023/01/25 07:09:03;;;;;;;20.80;12.23;;;2.50;99.90;;;6.15;55.89;99014.91;5031565;28;20520;-41
2023/01/25 07:11:31;;;;;;;23.00;13.00;;;2.50;99.90;;;6.17;55.42;99013.00;5031462;28;20041;-41
2023/01/25 07:13:59;;;;;;;20.17;11.00;;;2.50;99.90;;;6.18;56.17;99015.53;5032669;28;20413;-40
2023/01/25 07:16:28;;;;;;;30.73;14.40;;;2.50;99.90;;;6.19;55.49;99011.13;5031691;28;20045;-42
2023/01/25 07:18:55;;;;;;;20.53;11.90;;;2.50;99.90;;;6.21;55.74;99012.69;5031512;28;20057;-41
2023/01/25 07:21:23;;;;;;;26.80;14.73;;;2.60;99.90;;;6.21;55.18;99010.06;5032122;28;20068;-41
2023/01/25 07:23:51;;;;;;;18.83;11.03;;;2.60;99.90;;;6.16;56.09;99014.78;5031505;28;20053;-40
2023/01/25 07:26:23;;;;;;;19.23;10.77;;;2.60;99.90;;;6.17;55.99;99003.28;5032880;28;20388;-41
2023/01/25 07:28:52;;;;;;;31.13;15.23;;;2.70;99.90;;;6.19;55.77;99004.00;5032149;28;20034;-40
2023/01/25 07:31:20;;;;;;;67.80;36.17;;;2.60;99.90;;;6.20;55.68;99007.50;5031920;28;20042;-41
2023/01/25 07:33:54;;;;;;;50.10;27.63;;;2.70;99.90;;;6.18;55.96;99002.31;5039348;28;20049;-41
2023/01/25 07:36:23;;;;;;;22.75;13.98;;;2.70;99.90;;;6.21;55.95;99002.13;5031358;28;20048;-41
2023/01/25 07:38:56;;;;;;;20.47;11.87;;;2.70;99.90;;;6.22;55.85;99000.31;5032237;28;20045;-40
2023/01/25 07:41:25;;;;;;;23.85;16.08;;;2.70;99.90;;;6.19;56.27;98995.25;5031675;28;20060;-41
2023/01/25 07:43:54;;;;;;;21.17;13.40;;;2.70;99.90;;;6.18;56.01;98997.03;5032026;28;20037;-41
2023/01/25 07:46:33;;;;;;;14.87;9.13;;;2.70;99.90;;;6.17;56.00;98994.50;5030962;28;20474;-40
2023/01/25 07:49:00;;;;;;;16.10;8.63;;;2.70;99.90;;;6.18;56.03;98986.44;5030805;28;20048;-40
2023/01/25 07:51:29;;;;;;;17.67;8.93;;;2.70;99.90;;;6.18;55.64;98989.09;5010542;28;20050;-41
2023/01/25 07:54:03;;;;;;;20.80;11.77;;;2.70;99.90;;;6.17;55.29;98989.22;5031160;28;20513;-40
2023/01/25 07:56:37;;;;;;;15.50;9.80;;;2.60;99.90;;;6.13;55.62;98999.13;5031944;28;20045;-41
2023/01/25 07:59:07;;;;;;;;;;;2.50;99.90;;;6.05;55.33;98999.63;5024600;28;20109;-42
2023/01/25 08:01:36;;;;;;;17.60;11.47;;;2.40;99.90;;;6.09;55.36;98995.84;5031526;28;19921;-43
2023/01/25 08:04:04;;;;;;;22.93;13.07;;;2.50;99.90;;;6.03;55.12;99006.81;5023420;28;20044;-41
2023/01/25 08:06:37;;;;;;;16.80;12.60;;;2.40;99.90;;;6.04;55.74;99005.84;5031674;28;20064;-42
2023/01/25 08:09:18;;;;;;;16.75;11.55;;;2.50;99.90;;;6.04;56.43;99005.00;5024226;28;20501;-41
2023/01/25 08:11:48;;;;;;;17.00;10.83;;;2.50;99.90;;;6.03;55.62;99006.81;5031266;28;20520;-40
2023/01/25 08:14:16;;;;;;;15.10;9.30;;;2.60;99.90;;;6.02;56.00;99007.75;5030510;28;20489;-40
2023/01/25 08:16:44;;;;;;;14.30;8.50;;;2.70;99.90;;;6.03;56.26;99014.75;5031412;28;20044;-40
2023/01/25 08:19:15;;;;;;;16.13;10.40;;;2.70;99.90;;;6.04;55.39;99008.50;5031172;28;20350;-39
2023/01/25 08:21:43;;;;;;;17.10;14.93;;;2.70;99.90;;;6.08;55.65;99015.28;5030998;28;20041;-40
2023/01/25 08:24:11;;;;;;;12.60;8.00;;;2.70;99.90;;;6.11;55.80;99011.59;5030850;28;20052;-40
2023/01/25 08:26:39;;;;;;;15.80;8.73;;;2.70;99.90;;;6.13;55.91;99019.41;5031252;28;20033;-40
2023/01/25 08:29:09;;;;;;;12.07;7.33;;;2.70;99.90;;;6.14;55.98;99011.38;5031103;28;20418;-40
2023/01/25 08:31:40;;;;;;;10.97;7.13;;;2.70;99.90;;;6.18;55.87;99001.47;5030795;28;20042;-40
2023/01/25 08:34:09;;;;;;;11.77;7.60;;;2.70;99.90;;;6.20;55.21;98999.56;5022410;28;20041;-42
2023/01/25 08:36:37;;;;;;;15.30;9.10;;;2.70;99.90;;;6.22;55.32;99001.19;5029830;28;20505;-40
2023/01/25 08:39:10;;;;;;;16.33;9.20;;;2.80;99.90;;;6.20;55.17;99003.06;5030184;28;20048;-40
2023/01/25 08:41:38;;;;;;;23.20;9.95;;;2.70;99.90;;;6.19;55.21;98996.09;5030624;28;20045;-40
2023/01/25 08:44:06;;;;;;;16.60;8.70;;;2.80;99.90;;;6.15;55.82;98996.41;5023048;28;20421;-41
2023/01/25 08:46:34;;;;;;;13.33;8.50;;;2.70;99.90;;;6.17;56.07;98986.56;5030975;28;20485;-41
2023/01/25 08:49:03;;;;;;;12.20;7.53;;;2.80;99.90;;;6.18;55.56;98983.78;5030711;28;20044;-40
2023/01/25 08:51:32;;;;;;;12.37;7.73;;;2.80;99.90;;;6.19;55.32;98984.66;5030846;28;20045;-40
2023/01/25 08:54:05;;;;;;;14.47;7.57;;;2.70;99.90;;;6.24;54.96;98977.25;5030758;28;20052;-40
2023/01/25 08:56:37;;;;;;;16.52;8.77;;;2.80;99.90;;;6.27;54.73;98974.41;5030342;28;20041;-40
2023/01/25 08:59:06;;;;;;;15.60;7.50;;;2.80;99.90;;;6.28;55.63;98979.63;5023621;28;20436;-40
2023/01/25 09:01:34;;;;;;;14.97;8.30;;;2.70;99.90;;;6.25;55.60;98976.31;5030700;28;20049;-40
2023/01/25 09:04:02;;;;;;;14.77;7.70;;;2.80;99.90;;;6.26;55.48;98970.06;5029854;28;20132;-40
2023/01/25 09:06:31;;;;;;;13.97;8.20;;;2.80;99.90;;;6.26;55.19;98975.34;5030308;28;20041;-41
2023/01/25 09:08:59;;;;;;;15.50;8.40;;;2.80;99.90;;;6.26;55.71;98973.59;5031057;28;20049;-40
2023/01/25 09:11:27;;;;;;;15.47;8.07;;;2.80;99.90;;;6.27;55.76;98975.25;5030692;28;20504;-40
2023/01/25 09:13:55;;;;;;;14.10;7.93;;;2.80;99.90;;;6.29;55.52;98969.88;5031132;28;20064;-40
2023/01/25 09:16:27;;;;;;;19.07;9.47;;;2.80;99.90;;;6.31;55.37;98971.47;5031224;28;20050;-40
2023/01/25 09:18:59;;;;;;;18.83;9.90;;;2.80;99.90;;;6.32;55.51;98964.41;5031063;28;20488;-40
2023/01/25 09:21:29;;;;;;;18.00;10.73;;;2.90;99.90;;;6.31;54.76;98966.16;5029714;28;20049;-40
2023/01/25 09:23:57;;;;;;;19.03;9.97;;;2.80;99.90;;;6.28;55.54;98963.75;5031398;28;20060;-40
2023/01/25 09:26:38;;;;;;;14.43;8.70;;;2.80;99.90;;;6.25;55.54;98957.81;5031139;28;20408;-40
2023/01/25 09:29:08;;;;;;;15.80;8.90;;;2.80;99.90;;;6.24;55.62;98966.69;5021701;28;20045;-41
2023/01/25 09:31:39;;;;;;;13.23;7.57;;;2.80;99.90;;;6.23;55.18;98963.19;5030263;28;20049;-40
2023/01/25 09:34:36;;;;;;;16.30;7.80;;;2.80;99.90;;;6.26;55.66;98962.13;5010295;28;20524;-41
2023/01/25 09:37:04;;;;;;;14.93;8.60;;;2.80;99.90;;;6.27;55.22;98959.41;5030830;28;20497;-40
2023/01/25 09:39:32;;;;;;;14.10;7.53;;;2.90;99.90;;;6.27;55.35;98964.69;5030888;28;20056;-40
2023/01/25 09:42:12;;;;;;;11.40;7.43;;;2.80;99.90;;;6.26;55.18;98967.41;5030756;28;20060;-40
2023/01/25 09:45:13;;;;;;;14.43;8.63;;;2.80;99.90;;;6.21;55.44;98973.03;5030697;28;20038;-41
2023/01/25 09:47:50;;;;;;;17.37;9.13;;;2.80;99.90;;;6.30;55.70;98971.56;5025987;28;20041;-40
2023/01/25 09:51:19;;;;;;;15.47;8.67;;;2.80;99.90;;;6.27;55.64;98975.25;5023863;28;20394;-40
2023/01/25 09:53:52;;;;;;;24.53;11.80;;;2.80;99.90;;;6.32;55.13;98972.34;5040890;28;20065;-40
2023/01/25 09:56:29;;;;;;;29.38;14.63;;;2.80;99.90;;;6.30;55.61;98963.63;5032790;28;20049;-40
2023/01/25 09:59:10;;;;;;;16.00;8.53;;;2.80;99.90;;;6.31;55.03;98968.81;5033224;28;20509;-42
2023/01/25 10:02:04;;;;;;;17.60;9.20;;;2.80;99.90;;;6.30;55.39;98963.63;5032941;28;20045;-42
2023/01/25 10:04:44;;;;;;;14.13;9.13;;;2.80;99.90;;;6.28;55.43;98960.22;5033419;28;20045;-41
2023/01/25 10:07:26;;;;;;;13.17;8.90;;;2.90;99.90;;;6.28;55.16;98965.53;5016539;28;20045;-41
2023/01/25 10:10:10;;;;;;;14.73;8.43;;;2.90;99.90;;;6.29;55.25;98954.00;5023091;28;20509;-40
2023/01/25 10:12:38;;;;;;;;;;;2.90;99.90;;;6.28;55.37;98952.31;5029375;28;20049;-41
2023/01/25 10:15:19;;;;;;;11.97;7.53;;;2.90;99.90;;;6.35;54.85;98950.94;5024691;28;19928;-41
2023/01/25 10:18:00;;;;;;;13.13;8.20;;;2.90;99.90;;;6.38;54.89;98942.81;5027099;28;20041;-41
2023/01/25 10:21:03;;;;;;;12.67;8.53;;;2.90;99.90;;;6.38;54.58;98939.31;5025659;28;20052;-40
2023/01/25 10:24:00;;;;;;;11.93;8.13;;;3.00;99.90;;;6.40;55.21;98943.56;5028592;28;20038;-41
2023/01/25 10:26:35;;;;;;;14.03;8.03;;;3.00;99.90;;;6.41;54.43;98937.31;5028226;28;20072;-41
2023/01/25 10:29:22;;;;;;;16.77;9.37;;;3.00;99.90;;;6.37;54.95;98941.13;5032457;28;20053;-41
2023/01/25 10:32:18;;;;;;;18.13;10.13;;;3.00;99.90;;;6.40;55.09;98937.44;5033507;28;20045;-41
2023/01/25 10:34:51;;;;;;;15.93;8.77;;;3.00;99.90;;;6.40;54.42;98927.69;5032913;28;20041;-41
2023/01/25 10:37:29;;;;;;;19.37;10.60;;;3.00;99.90;;;6.46;54.74;98926.44;5026367;28;20046;-41
2023/01/25 10:40:03;;;;;;;16.80;8.15;;;3.00;99.90;;;6.48;54.06;98919.22;5032195;28;20068;-40
2023/01/25 10:42:40;;;;;;;14.43;7.40;;;3.00;99.90;;;6.45;54.59;98930.00;5031398;28;20033;-40
2023/01/25 10:45:15;;;;;;;15.53;9.43;;;3.00;99.90;;;6.45;54.31;98919.44;5032411;28;20516;-40
2023/01/25 10:47:51;;;;;;;16.20;8.40;;;3.00;99.90;;;6.41;54.29;98920.59;5033639;28;20068;-40